El Dorado, Kansas
Current Conditions -  °F | °C
As of 5:15 PM on Sunday 21 Dec 2014 (Local Time) from KEQA Reporting Station
Light Rain Light Rain  
Wind Chill: 38°   Ceiling: 400
Heat Index: 45°   Visibility: 4mi
Dew Point: 43°   Wind: 14mph
Humidity: 93%   Direction: 170°S
Pressure: 29.75"   Gusts: NA
Location:  37.82°N, 96.85°W
Report Text: KEQA 212315Z AUTO 17012KT 4SM -RA OVC004 07/06 A2975 RMK AO2
Loading
Personal Weather Stations






























Interactive Weather Map New forecast layout! Learn more

10-Day Weather Forecast

Advertisements
Track Severe Weather on mobile